Time;durP1;ratioP1;P1;durP2;ratioP2;P2;SDS_P1;SDS_P2;PMS_P1;PMS_P2;Temp;Humidity;BMP_temperature;BMP_pressure;BME280_temperature;BME280_humidity;BME280_pressure;Samples;Min_cycle;Max_cycle;Signal;HPM_P1;HPM_P2
2023/03/13 00:01:37;;;;;;;22.35;6.75;;;;;;;;;;5046034;28;20393;-64
2023/03/13 00:04:02;;;;;;;22.05;6.13;;;;;;;;;;5034100;28;20029;-64
2023/03/13 00:06:35;;;;;;;18.55;6.28;;;;;;;;;;5045132;28;20357;-64
2023/03/13 00:09:01;;;;;;;14.57;6.18;;;;;;;;;;5034941;28;20035;-64
2023/03/13 00:11:26;;;;;;;23.92;6.20;;;;;;;;;;5045398;28;20096;-64
2023/03/13 00:13:55;;;;;;;10.85;5.85;;;;;;;;;;5033326;28;20479;-64
2023/03/13 00:16:21;;;;;;;23.98;6.55;;;;;;;;;;5032850;28;20349;-65
2023/03/13 00:18:47;;;;;;;14.40;5.60;;;;;;;;;;5046733;28;20075;-64
2023/03/13 00:21:13;;;;;;;18.23;5.75;;;;;;;;;;5052514;28;20062;-63
2023/03/13 00:23:38;;;;;;;14.55;5.68;;;;;;;;;;5050768;28;20052;-64
2023/03/13 00:26:10;;;;;;;13.15;5.35;;;;;;;;;;5050870;28;20021;-64
2023/03/13 00:28:36;;;;;;;11.65;5.63;;;;;;;;;;5051145;28;20021;-64
2023/03/13 00:31:04;;;;;;;14.57;6.00;;;;;;;;;;5052059;28;20028;-64
2023/03/13 00:33:37;;;;;;;21.90;6.68;;;;;;;;;;5050944;28;20104;-64
2023/03/13 00:36:06;;;;;;;16.92;6.20;;;;;;;;;;5052730;28;20021;-64
2023/03/13 00:38:32;;;;;;;17.63;5.78;;;;;;;;;;5050460;28;20028;-64
2023/03/13 00:41:01;;;;;;;20.05;7.07;;;;;;;;;;5051456;28;20028;-64
2023/03/13 00:43:27;;;;;;;20.17;6.47;;;;;;;;;;5050128;28;20459;-64
2023/03/13 00:45:52;;;;;;;23.60;7.80;;;;;;;;;;5050697;28;20032;-63
2023/03/13 00:48:17;;;;;;;14.77;6.28;;;;;;;;;;5038048;28;20028;-63
2023/03/13 00:50:43;;;;;;;26.63;7.35;;;;;;;;;;5033048;28;20343;-64
2023/03/13 00:53:08;;;;;;;22.23;7.10;;;;;;;;;;5033196;28;20021;-64
2023/03/13 00:55:33;;;;;;;22.25;6.82;;;;;;;;;;5039948;28;20087;-64
2023/03/13 00:57:58;;;;;;;25.17;7.13;;;;;;;;;;5036669;28;20030;-64
2023/03/13 01:00:24;;;;;;;21.50;6.82;;;;;;;;;;5032649;28;20472;-64
2023/03/13 01:02:49;;;;;;;19.77;7.68;;;;;;;;;;5033419;28;20080;-64
2023/03/13 01:05:14;;;;;;;23.80;8.00;;;;;;;;;;5046702;28;20086;-64
2023/03/13 01:07:39;;;;;;;21.73;6.60;;;;;;;;;;5051228;28;20036;-64
2023/03/13 01:10:05;;;;;;;21.40;7.60;;;;;;;;;;5052982;28;20755;-64
2023/03/13 01:12:30;;;;;;;22.60;7.88;;;;;;;;;;5056053;28;20034;-64
2023/03/13 01:14:55;;;;;;;19.25;6.78;;;;;;;;;;5057488;28;20509;-64
2023/03/13 01:17:21;;;;;;;15.38;7.03;;;;;;;;;;5056077;28;20025;-64
2023/03/13 01:19:46;;;;;;;26.08;6.97;;;;;;;;;;5057937;28;20043;-63
2023/03/13 01:22:11;;;;;;;21.00;6.88;;;;;;;;;;5056510;28;20013;-64
2023/03/13 01:24:37;;;;;;;18.42;7.32;;;;;;;;;;5057566;28;20043;-64
2023/03/13 01:27:02;;;;;;;20.50;6.35;;;;;;;;;;5056454;28;20092;-63
2023/03/13 01:29:27;;;;;;;19.35;5.85;;;;;;;;;;5058198;28;20024;-64
2023/03/13 01:31:52;;;;;;;17.75;7.22;;;;;;;;;;5057806;28;20485;-64
2023/03/13 01:34:18;;;;;;;21.90;7.05;;;;;;;;;;5058982;28;20094;-63
2023/03/13 01:36:44;;;;;;;22.13;6.38;;;;;;;;;;5056576;28;20024;-63
2023/03/13 01:39:09;;;;;;;24.13;7.13;;;;;;;;;;5058687;28;20025;-63
2023/03/13 01:41:36;;;;;;;20.92;7.25;;;;;;;;;;5056525;28;20029;-63
2023/03/13 01:44:01;;;;;;;30.00;7.30;;;;;;;;;;5057785;28;20051;-63
2023/03/13 01:46:28;;;;;;;12.35;6.28;;;;;;;;;;5056821;28;20100;-63
2023/03/13 01:49:04;;;;;;;19.23;5.75;;;;;;;;;;5058272;28;20107;-63
2023/03/13 01:51:37;;;;;;;25.00;5.28;;;;;;;;;;5055817;28;20025;-64
2023/03/13 01:54:08;;;;;;;24.83;6.43;;;;;;;;;;5058003;28;20029;-64
2023/03/13 01:56:40;;;;;;;18.63;5.65;;;;;;;;;;5055407;28;20028;-64
2023/03/13 01:59:07;;;;;;;17.08;5.75;;;;;;;;;;5044085;28;20029;-63
2023/03/13 02:01:33;;;;;;;13.57;5.75;;;;;;;;;;5055161;28;20368;-64
2023/03/13 02:03:58;;;;;;;13.70;5.68;;;;;;;;;;5057989;28;20036;-64
2023/03/13 02:06:26;;;;;;;13.27;5.63;;;;;;;;;;5057843;28;20033;-64
2023/03/13 02:08:57;;;;;;;11.15;5.13;;;;;;;;;;5056631;28;20391;-64
2023/03/13 02:11:22;;;;;;;14.85;4.93;;;;;;;;;;5057755;28;20421;-64
2023/03/13 02:13:48;;;;;;;13.73;5.35;;;;;;;;;;5057453;28;20029;-64
2023/03/13 02:16:14;;;;;;;14.27;4.70;;;;;;;;;;5051151;28;20377;-64
2023/03/13 02:18:40;;;;;;;10.07;4.18;;;;;;;;;;5042050;28;20022;-64
2023/03/13 02:21:09;;;;;;;11.80;4.70;;;;;;;;;;5045410;28;20053;-65
2023/03/13 02:23:40;;;;;;;14.70;4.43;;;;;;;;;;5053755;28;20372;-64
2023/03/13 02:26:05;;;;;;;10.20;4.13;;;;;;;;;;5054703;28;20040;-64
2023/03/13 02:28:32;;;;;;;9.13;4.35;;;;;;;;;;5054905;28;20357;-64
2023/03/13 02:30:58;;;;;;;12.82;4.45;;;;;;;;;;5053205;28;20566;-64
2023/03/13 02:33:28;;;;;;;11.20;4.30;;;;;;;;;;5049530;28;20028;-64
2023/03/13 02:35:53;;;;;;;10.65;4.68;;;;;;;;;;5041725;28;20090;-64
2023/03/13 02:38:26;;;;;;;10.70;4.47;;;;;;;;;;5052729;28;20033;-64
2023/03/13 02:40:52;;;;;;;10.38;4.45;;;;;;;;;;5052761;28;20033;-64
2023/03/13 02:43:21;;;;;;;6.80;3.97;;;;;;;;;;5050676;28;20092;-64
2023/03/13 02:46:00;;;;;;;7.15;4.50;;;;;;;;;;5052491;28;20033;-64
2023/03/13 02:48:30;;;;;;;6.25;4.10;;;;;;;;;;5038254;28;20032;-64
2023/03/13 02:50:55;;;;;;;10.90;4.35;;;;;;;;;;5045239;28;20063;-64
2023/03/13 02:53:21;;;;;;;7.38;5.13;;;;;;;;;;5054348;28;20057;-64
2023/03/13 02:55:46;;;;;;;8.45;4.78;;;;;;;;;;5054405;28;20056;-64
2023/03/13 02:58:11;;;;;;;9.15;4.88;;;;;;;;;;5053126;28;20017;-65
2023/03/13 03:00:36;;;;;;;11.75;4.43;;;;;;;;;;5052922;28;20490;-64
2023/03/13 03:03:01;;;;;;;5.82;4.07;;;;;;;;;;5053519;28;20032;-64
2023/03/13 03:05:27;;;;;;;8.18;4.38;;;;;;;;;;5054253;28;20017;-64
2023/03/13 03:07:52;;;;;;;8.20;4.30;;;;;;;;;;5053863;28;20460;-65
2023/03/13 03:10:18;;;;;;;9.90;4.15;;;;;;;;;;5047916;28;20372;-64
2023/03/13 03:12:43;;;;;;;6.82;4.25;;;;;;;;;;5046378;28;20053;-65
2023/03/13 03:15:08;;;;;;;9.18;4.05;;;;;;;;;;5036529;28;20049;-64
2023/03/13 03:17:34;;;;;;;6.78;4.07;;;;;;;;;;5038888;28;20384;-64
2023/03/13 03:19:59;;;;;;;5.72;4.07;;;;;;;;;;5036593;28;20032;-63
2023/03/13 03:22:24;;;;;;;7.88;4.13;;;;;;;;;;5040479;28;20033;-63
2023/03/13 03:24:50;;;;;;;7.00;3.80;;;;;;;;;;5052226;28;20364;-63
2023/03/13 03:27:15;;;;;;;7.18;3.75;;;;;;;;;;5053548;28;20395;-64
2023/03/13 03:29:40;;;;;;;7.22;3.28;;;;;;;;;;5052883;28;20029;-64
2023/03/13 03:32:05;;;;;;;9.57;3.63;;;;;;;;;;5053529;28;20460;-64
2023/03/13 03:34:31;;;;;;;6.28;3.78;;;;;;;;;;5041097;28;20096;-64
2023/03/13 03:36:56;;;;;;;5.95;3.72;;;;;;;;;;5035142;28;20357;-63
2023/03/13 03:39:22;;;;;;;8.25;3.95;;;;;;;;;;5039555;28;20090;-64
2023/03/13 03:41:47;;;;;;;5.32;3.15;;;;;;;;;;5050305;28;20017;-64
2023/03/13 03:44:12;;;;;;;5.28;3.42;;;;;;;;;;5049779;28;20024;-63
2023/03/13 03:46:37;;;;;;;6.22;3.35;;;;;;;;;;5039976;28;20103;-64
2023/03/13 03:49:03;;;;;;;5.05;2.95;;;;;;;;;;5045677;28;20030;-64
2023/03/13 03:51:28;;;;;;;4.53;2.90;;;;;;;;;;5034399;28;20087;-63
2023/03/13 03:53:53;;;;;;;4.95;3.38;;;;;;;;;;5033809;28;20067;-64
2023/03/13 03:56:19;;;;;;;6.82;4.05;;;;;;;;;;5033010;28;20018;-64
2023/03/13 03:58:44;;;;;;;6.57;3.88;;;;;;;;;;5046397;28;20037;-63
2023/03/13 04:01:09;;;;;;;8.18;3.40;;;;;;;;;;5052842;28;20074;-63
2023/03/13 04:03:34;;;;;;;7.40;3.47;;;;;;;;;;5052199;28;20432;-64
2023/03/13 04:06:00;;;;;;;5.50;3.55;;;;;;;;;;5045881;28;20037;-63
2023/03/13 04:08:25;;;;;;;4.47;3.17;;;;;;;;;;5033218;28;20084;-64
2023/03/13 04:10:50;;;;;;;5.25;3.42;;;;;;;;;;5050022;28;20053;-64
2023/03/13 04:13:16;;;;;;;5.85;3.25;;;;;;;;;;5033545;28;20025;-64
2023/03/13 04:15:41;;;;;;;7.47;4.30;;;;;;;;;;5039618;28;20115;-64
2023/03/13 04:18:06;;;;;;;5.20;3.03;;;;;;;;;;5036091;28;20148;-64
2023/03/13 04:20:32;;;;;;;6.57;4.15;;;;;;;;;;5043474;28;20032;-64
2023/03/13 04:22:57;;;;;;;6.25;4.03;;;;;;;;;;5043709;28;20025;-64
2023/03/13 04:25:22;;;;;;;7.45;4.75;;;;;;;;;;5039374;28;20039;-64
2023/03/13 04:27:48;;;;;;;5.88;3.70;;;;;;;;;;5036405;28;20518;-64
2023/03/13 04:30:13;;;;;;;7.65;3.80;;;;;;;;;;5039106;28;20024;-64
2023/03/13 04:32:39;;;;;;;5.13;3.50;;;;;;;;;;5045054;28;20033;-64
2023/03/13 04:35:05;;;;;;;6.78;3.55;;;;;;;;;;5047305;28;20023;-64
2023/03/13 04:37:30;;;;;;;5.15;3.60;;;;;;;;;;5052419;28;20104;-64
2023/03/13 04:39:55;;;;;;;6.60;3.80;;;;;;;;;;5051027;28;20100;-64
2023/03/13 04:42:20;;;;;;;6.25;3.83;;;;;;;;;;5052560;28;20078;-64
2023/03/13 04:44:46;;;;;;;4.78;3.08;;;;;;;;;;5050526;28;20091;-64
2023/03/13 04:47:11;;;;;;;4.88;3.70;;;;;;;;;;5051065;28;20067;-64
2023/03/13 04:49:36;;;;;;;6.70;4.03;;;;;;;;;;5052616;28;20029;-64
2023/03/13 04:52:01;;;;;;;5.35;3.28;;;;;;;;;;5050938;28;20472;-64
2023/03/13 04:54:27;;;;;;;4.93;3.33;;;;;;;;;;5048897;28;20086;-64
2023/03/13 04:56:52;;;;;;;5.43;3.13;;;;;;;;;;5049419;28;20441;-64
2023/03/13 04:59:17;;;;;;;7.65;3.65;;;;;;;;;;5046589;28;20024;-64
2023/03/13 05:01:43;;;;;;;6.60;3.22;;;;;;;;;;5049691;28;20040;-64
2023/03/13 05:04:08;;;;;;;4.63;2.72;;;;;;;;;;5049572;28;20071;-64
2023/03/13 05:06:34;;;;;;;5.45;3.28;;;;;;;;;;5048215;28;20039;-64
2023/03/13 05:08:59;;;;;;;6.82;3.63;;;;;;;;;;5050085;28;20459;-64
2023/03/13 05:11:24;;;;;;;8.63;3.70;;;;;;;;;;5051316;28;20020;-64
2023/03/13 05:13:50;;;;;;;7.00;3.67;;;;;;;;;;5051015;28;20158;-64
2023/03/13 05:16:15;;;;;;;7.35;3.40;;;;;;;;;;5051765;28;20022;-64
2023/03/13 05:18:40;;;;;;;5.63;2.90;;;;;;;;;;5051081;28;20060;-64
2023/03/13 05:21:06;;;;;;;8.32;3.17;;;;;;;;;;5052183;28;20029;-64
2023/03/13 05:23:32;;;;;;;5.70;2.88;;;;;;;;;;5051598;28;20029;-64
2023/03/13 05:25:57;;;;;;;5.18;2.90;;;;;;;;;;5051543;28;20104;-64
2023/03/13 05:28:22;;;;;;;5.57;2.60;;;;;;;;;;5050811;28;20035;-64
2023/03/13 05:30:48;;;;;;;9.02;3.20;;;;;;;;;;5051369;28;20483;-64
2023/03/13 05:33:13;;;;;;;4.80;2.40;;;;;;;;;;5048471;28;20053;-64
2023/03/13 05:35:38;;;;;;;3.83;2.85;;;;;;;;;;5032327;28;20029;-63
2023/03/13 05:38:03;;;;;;;11.05;3.65;;;;;;;;;;5045256;28;20072;-64
2023/03/13 05:40:29;;;;;;;8.23;3.38;;;;;;;;;;5032548;28;20033;-64
2023/03/13 05:42:54;;;;;;;6.40;3.17;;;;;;;;;;5031913;28;20438;-64
2023/03/13 05:45:19;;;;;;;5.95;2.38;;;;;;;;;;5031928;28;20137;-64
2023/03/13 05:47:45;;;;;;;6.40;3.13;;;;;;;;;;5047021;28;20376;-64
2023/03/13 05:50:10;;;;;;;9.50;3.17;;;;;;;;;;5051479;28;20394;-64
2023/03/13 05:52:35;;;;;;;5.95;2.42;;;;;;;;;;5049166;28;20029;-65
2023/03/13 05:55:00;;;;;;;6.03;2.88;;;;;;;;;;5051130;28;20028;-64
2023/03/13 05:57:26;;;;;;;6.85;2.35;;;;;;;;;;5050866;28;20133;-64
2023/03/13 05:59:51;;;;;;;5.00;2.22;;;;;;;;;;5054140;28;20021;-64
2023/03/13 06:02:16;;;;;;;6.35;2.72;;;;;;;;;;5053939;28;20033;-64
2023/03/13 06:04:41;;;;;;;5.75;2.70;;;;;;;;;;5054712;28;20056;-64
2023/03/13 06:07:07;;;;;;;6.00;2.53;;;;;;;;;;5054356;28;20032;-63
2023/03/13 06:09:32;;;;;;;6.00;2.63;;;;;;;;;;5055072;28;20078;-64
2023/03/13 06:11:58;;;;;;;4.03;2.30;;;;;;;;;;5055031;28;20525;-64
2023/03/13 06:14:23;;;;;;;6.32;2.40;;;;;;;;;;5037099;28;20109;-64
2023/03/13 06:16:48;;;;;;;9.02;3.13;;;;;;;;;;5034925;28;20099;-63
2023/03/13 06:19:14;;;;;;;5.05;2.25;;;;;;;;;;5033349;28;20096;-64
2023/03/13 06:21:39;;;;;;;4.63;2.22;;;;;;;;;;5031258;28;20137;-64
2023/03/13 06:24:04;;;;;;;15.52;2.95;;;;;;;;;;5035269;28;20376;-64
2023/03/13 06:26:30;;;;;;;5.80;2.50;;;;;;;;;;5035251;28;20029;-64
2023/03/13 06:28:55;;;;;;;4.75;2.55;;;;;;;;;;5035115;28;20036;-64
2023/03/13 06:31:20;;;;;;;7.93;2.20;;;;;;;;;;5035833;28;20056;-64
2023/03/13 06:33:46;;;;;;;5.50;3.05;;;;;;;;;;5046812;28;20100;-64
2023/03/13 06:36:11;;;;;;;6.82;2.95;;;;;;;;;;5035125;28;20022;-64
2023/03/13 06:38:36;;;;;;;9.55;2.88;;;;;;;;;;5041371;28;20069;-64
2023/03/13 06:41:02;;;;;;;10.27;3.35;;;;;;;;;;5036328;28;20060;-63
2023/03/13 06:43:27;;;;;;;6.57;2.88;;;;;;;;;;5035357;28;20026;-64
2023/03/13 06:45:52;;;;;;;9.60;3.15;;;;;;;;;;5036362;28;20033;-64
2023/03/13 06:48:18;;;;;;;7.38;3.05;;;;;;;;;;5035737;28;20499;-64
2023/03/13 06:50:43;;;;;;;5.72;2.90;;;;;;;;;;5036668;28;20026;-64
2023/03/13 06:53:16;;;;;;;7.05;2.88;;;;;;;;;;5036077;28;20045;-64
2023/03/13 06:55:41;;;;;;;9.07;3.05;;;;;;;;;;5046762;28;20021;-64
2023/03/13 06:58:06;;;;;;;5.43;2.70;;;;;;;;;;5035383;28;20024;-64
2023/03/13 07:00:33;;;;;;;9.18;2.83;;;;;;;;;;5037460;28;20424;-64
2023/03/13 07:02:58;;;;;;;6.10;3.15;;;;;;;;;;5036189;28;20025;-64
2023/03/13 07:05:23;;;;;;;5.47;2.92;;;;;;;;;;5037578;28;20021;-63
2023/03/13 07:07:48;;;;;;;9.10;3.80;;;;;;;;;;5041372;28;20041;-63
2023/03/13 07:10:14;;;;;;;12.43;3.20;;;;;;;;;;5051226;28;20036;-64
2023/03/13 07:12:39;;;;;;;6.20;2.95;;;;;;;;;;5045275;28;20092;-64
2023/03/13 07:15:04;;;;;;;7.15;3.13;;;;;;;;;;5043570;28;20033;-64
2023/03/13 07:17:30;;;;;;;9.40;2.90;;;;;;;;;;5043795;28;20056;-64
2023/03/13 07:19:55;;;;;;;6.65;3.10;;;;;;;;;;5044024;28;20464;-64
2023/03/13 07:22:20;;;;;;;8.27;3.50;;;;;;;;;;5038820;28;20018;-64
2023/03/13 07:24:45;;;;;;;9.02;3.13;;;;;;;;;;5048151;28;20050;-65
2023/03/13 07:27:11;;;;;;;8.43;3.33;;;;;;;;;;5038689;28;20033;-64
2023/03/13 07:29:36;;;;;;;5.88;2.22;;;;;;;;;;5037590;28;20033;-65
2023/03/13 07:32:01;;;;;;;7.13;3.08;;;;;;;;;;5043893;28;20036;-64
2023/03/13 07:34:26;;;;;;;6.80;3.17;;;;;;;;;;5053342;28;20033;-66
2023/03/13 07:36:52;;;;;;;12.73;3.85;;;;;;;;;;5053031;28;20036;-66
2023/03/13 07:39:17;;;;;;;14.25;3.92;;;;;;;;;;5053470;28;20025;-66
2023/03/13 07:41:42;;;;;;;10.18;3.42;;;;;;;;;;5048907;28;20078;-63
2023/03/13 07:44:07;;;;;;;9.18;3.67;;;;;;;;;;5051067;28;20017;-63
2023/03/13 07:46:33;;;;;;;7.63;2.90;;;;;;;;;;5048731;28;20067;-63
2023/03/13 07:48:58;;;;;;;5.43;3.25;;;;;;;;;;5052415;28;20467;-64
2023/03/13 07:51:24;;;;;;;11.35;3.65;;;;;;;;;;5050622;28;20419;-63
2023/03/13 07:53:50;;;;;;;7.85;3.17;;;;;;;;;;5050901;28;20029;-63
2023/03/13 07:56:19;;;;;;;6.53;3.10;;;;;;;;;;5049542;28;20035;-63
2023/03/13 07:58:45;;;;;;;10.45;3.17;;;;;;;;;;5049479;28;20032;-63
2023/03/13 08:01:11;;;;;;;6.53;2.95;;;;;;;;;;5048059;28;20528;-63
2023/03/13 08:03:37;;;;;;;9.02;3.42;;;;;;;;;;5048587;28;20052;-63
2023/03/13 08:06:04;;;;;;;6.55;3.13;;;;;;;;;;5045207;28;20479;-63
2023/03/13 08:08:29;;;;;;;5.53;2.92;;;;;;;;;;5051148;28;20016;-63
2023/03/13 08:11:05;;;;;;;9.35;3.30;;;;;;;;;;5046880;28;20028;-63
2023/03/13 08:13:31;;;;;;;7.82;3.22;;;;;;;;;;5042305;28;20118;-63
2023/03/13 08:16:08;;;;;;;10.73;3.30;;;;;;;;;;5036295;28;20032;-63
2023/03/13 08:18:34;;;;;;;5.88;3.45;;;;;;;;;;5036832;28;20053;-63
2023/03/13 08:21:00;;;;;;;7.57;3.08;;;;;;;;;;5036538;28;20057;-64
2023/03/13 08:23:25;;;;;;;5.80;2.30;;;;;;;;;;5040425;28;20025;-63
2023/03/13 08:25:50;;;;;;;16.38;2.95;;;;;;;;;;5036868;28;20028;-63
2023/03/13 08:28:16;;;;;;;11.38;3.10;;;;;;;;;;5039760;28;20057;-63
2023/03/13 08:30:41;;;;;;;14.80;2.95;;;;;;;;;;5037800;28;20439;-63
2023/03/13 08:33:06;;;;;;;9.48;3.03;;;;;;;;;;5048824;28;20043;-63
2023/03/13 08:35:31;;;;;;;8.07;2.80;;;;;;;;;;5031188;28;20052;-63
2023/03/13 08:37:57;;;;;;;6.30;2.45;;;;;;;;;;5010215;28;20033;-63
2023/03/13 08:40:22;;;;;;;4.55;2.40;;;;;;;;;;5007550;28;20040;-63
2023/03/13 08:42:47;;;;;;;9.52;3.08;;;;;;;;;;5000790;28;20029;-64
2023/03/13 08:45:12;;;;;;;6.22;2.70;;;;;;;;;;5012952;28;20017;-64
2023/03/13 08:47:38;;;;;;;9.40;3.13;;;;;;;;;;5004938;28;20025;-63
2023/03/13 08:50:03;;;;;;;6.35;2.78;;;;;;;;;;5003901;28;20880;-63
2023/03/13 08:52:28;;;;;;;7.32;2.92;;;;;;;;;;5004962;28;20025;-63
2023/03/13 08:54:54;;;;;;;6.88;2.70;;;;;;;;;;4997546;28;20088;-63
2023/03/13 08:57:19;;;;;;;8.20;4.05;;;;;;;;;;5002577;28;20021;-63
2023/03/13 08:59:44;;;;;;;7.67;2.47;;;;;;;;;;5000206;28;20154;-63
2023/03/13 09:02:09;;;;;;;7.78;3.53;;;;;;;;;;5001632;28;20295;-63
2023/03/13 09:04:35;;;;;;;6.90;3.20;;;;;;;;;;5004170;28;20067;-63
2023/03/13 09:07:00;;;;;;;5.82;2.83;;;;;;;;;;5003500;28;20042;-63
2023/03/13 09:09:25;;;;;;;5.97;2.97;;;;;;;;;;5004158;28;20028;-63
2023/03/13 09:11:50;;;;;;;7.82;3.15;;;;;;;;;;5005184;28;20933;-63
2023/03/13 09:14:16;;;;;;;3.85;1.88;;;;;;;;;;5006103;28;20028;-63
2023/03/13 09:16:41;;;;;;;6.22;2.55;;;;;;;;;;5050034;28;20021;-63
2023/03/13 09:19:07;;;;;;;6.38;2.85;;;;;;;;;;5042212;28;20033;-63
2023/03/13 09:21:33;;;;;;;7.10;3.00;;;;;;;;;;5049297;28;20017;-63
2023/03/13 09:23:58;;;;;;;4.95;2.08;;;;;;;;;;5041534;28;20384;-63
2023/03/13 09:26:24;;;;;;;5.28;2.63;;;;;;;;;;5033202;28;20037;-63
2023/03/13 09:28:49;;;;;;;5.88;2.70;;;;;;;;;;5032983;28;20102;-64
2023/03/13 09:31:20;;;;;;;4.10;2.30;;;;;;;;;;5033547;28;20171;-64
2023/03/13 09:33:47;;;;;;;5.03;2.33;;;;;;;;;;5048404;28;20041;-62
2023/03/13 09:36:12;;;;;;;6.68;2.95;;;;;;;;;;5036038;28;20025;-63
2023/03/13 09:38:38;;;;;;;5.30;2.42;;;;;;;;;;5035806;28;20498;-63
2023/03/13 09:41:24;;;;;;;4.53;2.10;;;;;;;;;;5045207;28;20039;-64
2023/03/13 09:43:52;;;;;;;4.53;2.30;;;;;;;;;;5046218;28;20376;-64
2023/03/13 09:46:22;;;;;;;3.83;1.77;;;;;;;;;;5046833;28;20468;-64
2023/03/13 09:48:54;;;;;;;8.10;2.63;;;;;;;;;;5050710;28;20463;-64
2023/03/13 09:51:41;;;;;;;3.40;1.80;;;;;;;;;;5047150;28;20051;-64
2023/03/13 09:54:06;;;;;;;4.68;2.28;;;;;;;;;;5050076;28;20068;-66
2023/03/13 09:56:41;;;;;;;2.73;1.70;;;;;;;;;;5055469;28;20109;-64
2023/03/13 09:59:18;;;;;;;4.68;1.63;;;;;;;;;;5050735;28;20264;-64
2023/03/13 10:01:44;;;;;;;4.75;1.88;;;;;;;;;;5053087;28;20099;-64
2023/03/13 10:04:18;;;;;;;5.38;1.88;;;;;;;;;;5052639;28;20068;-64
2023/03/13 10:06:45;;;;;;;4.60;2.05;;;;;;;;;;5051818;28;20032;-63
2023/03/13 10:09:22;;;;;;;2.88;1.77;;;;;;;;;;5047942;28;20027;-63
2023/03/13 10:12:02;;;;;;;3.10;1.55;;;;;;;;;;5053723;28;20108;-64
2023/03/13 10:14:30;;;;;;;4.07;2.10;;;;;;;;;;5048966;28;20138;-64
2023/03/13 10:17:25;;;;;;;11.77;1.63;;;;;;;;;;5053334;28;20017;-64
2023/03/13 10:19:58;;;;;;;3.97;1.80;;;;;;;;;;5043784;28;20044;-64
2023/03/13 10:22:25;;;;;;;4.55;1.58;;;;;;;;;;5053547;28;20083;-64
2023/03/13 10:24:50;;;;;;;5.32;1.73;;;;;;;;;;5052339;28;20024;-64
2023/03/13 10:27:15;;;;;;;3.67;1.47;;;;;;;;;;5051335;28;20365;-65
2023/03/13 10:29:41;;;;;;;13.68;1.45;;;;;;;;;;5052230;28;20677;-64
2023/03/13 10:32:07;;;;;;;6.57;1.48;;;;;;;;;;5051224;28;20387;-63
2023/03/13 10:34:48;;;;;;;3.67;1.60;;;;;;;;;;5050752;28;20037;-64
2023/03/13 10:37:15;;;;;;;2.90;1.38;;;;;;;;;;5054157;28;20059;-64
2023/03/13 10:39:40;;;;;;;4.40;1.42;;;;;;;;;;5052871;28;20056;-64
2023/03/13 10:42:10;;;;;;;7.03;1.70;;;;;;;;;;5050714;28;20439;-63
2023/03/13 10:44:35;;;;;;;7.43;1.45;;;;;;;;;;5049621;28;20028;-64
2023/03/13 10:47:01;;;;;;;4.05;1.67;;;;;;;;;;5054254;28;20033;-64
2023/03/13 10:49:27;;;;;;;3.63;1.10;;;;;;;;;;5052507;28;20036;-64
2023/03/13 10:51:53;;;;;;;4.10;1.33;;;;;;;;;;5043077;28;20045;-63
2023/03/13 10:54:19;;;;;;;3.90;1.00;;;;;;;;;;5043980;28;20021;-63
2023/03/13 10:56:44;;;;;;;3.00;1.30;;;;;;;;;;5036565;28;20028;-64
2023/03/13 10:59:20;;;;;;;1.88;0.80;;;;;;;;;;5043380;28;20354;-64
2023/03/13 11:01:46;;;;;;;3.22;1.25;;;;;;;;;;5038335;28;20030;-64
2023/03/13 11:04:30;;;;;;;2.42;1.00;;;;;;;;;;5051672;28;20071;-64
2023/03/13 11:07:05;;;;;;;5.35;1.20;;;;;;;;;;5027772;28;20033;-64
2023/03/13 11:09:31;;;;;;;7.50;1.13;;;;;;;;;;5007644;28;20981;-64
2023/03/13 11:12:01;;;;;;;2.20;0.90;;;;;;;;;;5008131;28;20025;-64
2023/03/13 11:14:26;;;;;;;3.92;1.13;;;;;;;;;;5006686;28;20183;-64
2023/03/13 11:17:00;;;;;;;3.83;1.20;;;;;;;;;;5008542;28;20864;-65
2023/03/13 11:19:28;;;;;;;2.63;1.10;;;;;;;;;;5007034;28;20021;-64
2023/03/13 11:22:12;;;;;;;2.08;1.00;;;;;;;;;;5002283;28;20924;-64
2023/03/13 11:24:46;;;;;;;2.30;1.00;;;;;;;;;;5006463;28;20082;-64
2023/03/13 11:27:11;;;;;;;3.00;1.00;;;;;;;;;;5008255;28;20040;-65
2023/03/13 11:29:39;;;;;;;2.83;0.80;;;;;;;;;;5038694;28;20025;-64
2023/03/13 11:32:10;;;;;;;6.57;0.90;;;;;;;;;;5027516;28;20784;-64
2023/03/13 11:34:39;;;;;;;3.30;0.80;;;;;;;;;;5025330;28;20040;-64
2023/03/13 11:37:05;;;;;;;3.13;1.02;;;;;;;;;;5034570;28;20096;-63
2023/03/13 11:39:38;;;;;;;3.72;1.40;;;;;;;;;;5021485;28;20045;-64
2023/03/13 11:42:22;;;;;;;1.80;0.90;;;;;;;;;;5033239;28;20028;-64
2023/03/13 11:45:06;;;;;;;3.73;0.90;;;;;;;;;;5045260;28;20030;-65
2023/03/13 11:47:31;;;;;;;1.75;0.85;;;;;;;;;;5041437;28;20112;-64
2023/03/13 11:50:03;;;;;;;2.60;1.00;;;;;;;;;;5040821;28;20057;-64
2023/03/13 11:52:28;;;;;;;3.03;1.13;;;;;;;;;;5049091;28;20363;-64
2023/03/13 11:54:53;;;;;;;3.63;0.98;;;;;;;;;;5042382;28;20159;-63
2023/03/13 11:57:38;;;;;;;3.43;1.30;;;;;;;;;;5046076;28;20459;-64
2023/03/13 12:00:22;;;;;;;2.97;1.50;;;;;;;;;;5045507;28;20303;-64
2023/03/13 12:02:50;;;;;;;1.92;0.95;;;;;;;;;;5040225;28;20456;-64
2023/03/13 12:05:17;;;;;;;2.58;0.93;;;;;;;;;;5019357;28;20080;-65
2023/03/13 12:07:48;;;;;;;2.05;0.90;;;;;;;;;;5034928;28;20037;-65
2023/03/13 12:10:15;;;;;;;2.83;0.98;;;;;;;;;;5049167;28;20082;-65
2023/03/13 12:12:40;;;;;;;3.20;1.02;;;;;;;;;;5048227;28;20024;-65
2023/03/13 12:15:22;;;;;;;1.45;0.60;;;;;;;;;;5050070;28;20086;-65
2023/03/13 12:17:57;;;;;;;5.85;1.20;;;;;;;;;;5047456;28;20028;-64
2023/03/13 12:20:22;;;;;;;;;;;;;;;;;;5051200;28;20029;-65
2023/03/13 12:22:47;;;;;;;1.70;0.73;;;;;;;;;;5050517;28;19916;-64
2023/03/13 12:25:35;;;;;;;2.27;0.90;;;;;;;;;;5050119;28;20078;-64
2023/03/13 12:28:14;;;;;;;3.83;1.05;;;;;;;;;;5031444;28;20350;-65
2023/03/13 12:30:42;;;;;;;2.95;1.15;;;;;;;;;;5032640;28;20039;-64
2023/03/13 12:33:23;;;;;;;1.95;0.77;;;;;;;;;;5045529;28;20423;-64
2023/03/13 12:35:53;;;;;;;3.35;0.82;;;;;;;;;;5043383;28;20025;-64
2023/03/13 12:38:23;;;;;;;4.95;1.20;;;;;;;;;;5033586;28;20520;-64
2023/03/13 12:40:48;;;;;;;3.47;1.08;;;;;;;;;;5028355;28;20032;-65
2023/03/13 12:43:14;;;;;;;2.53;1.07;;;;;;;;;;5032230;28;20025;-64
2023/03/13 12:45:46;;;;;;;2.60;0.90;;;;;;;;;;5032945;28;20326;-64
2023/03/13 12:48:29;;;;;;;4.00;0.70;;;;;;;;;;5039264;28;20295;-65
2023/03/13 12:51:00;;;;;;;4.10;1.13;;;;;;;;;;5039428;28;20021;-65
2023/03/13 12:53:26;;;;;;;2.88;0.98;;;;;;;;;;5042926;28;20026;-65
2023/03/13 12:55:51;;;;;;;3.13;0.90;;;;;;;;;;5046171;28;20164;-64
2023/03/13 12:58:29;;;;;;;3.40;1.25;;;;;;;;;;5032711;28;20304;-64
2023/03/13 13:00:55;;;;;;;3.95;1.02;;;;;;;;;;5034092;28;20101;-65
2023/03/13 13:03:30;;;;;;;2.50;0.90;;;;;;;;;;5033247;28;20120;-64
2023/03/13 13:06:15;;;;;;;3.05;0.77;;;;;;;;;;5043045;28;20030;-64
2023/03/13 13:09:06;;;;;;;2.45;1.05;;;;;;;;;;5046759;28;20477;-66
2023/03/13 13:11:38;;;;;;;3.25;1.27;;;;;;;;;;5004615;28;20048;-65
2023/03/13 13:14:23;;;;;;;4.00;1.00;;;;;;;;;;5007148;28;20136;-66
2023/03/13 13:16:58;;;;;;;2.10;0.85;;;;;;;;;;5002572;28;20044;-65
2023/03/13 13:19:23;;;;;;;1.88;0.98;;;;;;;;;;5030809;28;20537;-66
2023/03/13 13:22:07;;;;;;;3.13;1.10;;;;;;;;;;5047024;28;20022;-65
2023/03/13 13:24:59;;;;;;;1.83;0.68;;;;;;;;;;5040670;28;20325;-65
2023/03/13 13:27:27;;;;;;;2.35;1.10;;;;;;;;;;5045750;28;20048;-65
2023/03/13 13:29:53;;;;;;;4.28;1.35;;;;;;;;;;5043333;28;20057;-64
2023/03/13 13:32:29;;;;;;;2.08;1.02;;;;;;;;;;5032983;28;20033;-64
2023/03/13 13:35:00;;;;;;;2.60;0.95;;;;;;;;;;4995269;28;20132;-64
2023/03/13 13:37:27;;;;;;;2.63;0.70;;;;;;;;;;5004312;28;20017;-64
2023/03/13 13:39:53;;;;;;;4.20;1.13;;;;;;;;;;5006530;28;20045;-65
2023/03/13 13:42:40;;;;;;;10.20;1.30;;;;;;;;;;5021150;28;20049;-64
2023/03/13 13:45:15;;;;;;;5.13;1.15;;;;;;;;;;5042847;28;20018;-64
2023/03/13 13:47:41;;;;;;;5.38;1.13;;;;;;;;;;5035721;28;20472;-64
2023/03/13 13:50:22;;;;;;;2.67;1.00;;;;;;;;;;5040329;28;20025;-64
2023/03/13 13:52:48;;;;;;;4.40;1.38;;;;;;;;;;5044886;28;20069;-64
2023/03/13 13:55:32;;;;;;;1.88;0.80;;;;;;;;;;5037436;28;20617;-64
2023/03/13 13:58:05;;;;;;;3.58;1.40;;;;;;;;;;5038146;28;20510;-69
2023/03/13 14:00:37;;;;;;;3.33;1.23;;;;;;;;;;5042338;28;20029;-65
2023/03/13 14:03:15;;;;;;;4.03;1.45;;;;;;;;;;5043155;28;20108;-64
2023/03/13 14:05:40;;;;;;;3.22;1.25;;;;;;;;;;5047585;28;20083;-63
2023/03/13 14:08:13;;;;;;;3.78;1.35;;;;;;;;;;5048495;28;20076;-64
2023/03/13 14:10:42;;;;;;;3.30;1.20;;;;;;;;;;5051410;28;20032;-64
2023/03/13 14:13:18;;;;;;;4.28;1.50;;;;;;;;;;5043360;28;20444;-64
2023/03/13 14:15:47;;;;;;;4.40;1.38;;;;;;;;;;5045209;28;20070;-64
2023/03/13 14:18:20;;;;;;;4.13;1.15;;;;;;;;;;5049657;28;20189;-64
2023/03/13 14:20:48;;;;;;;3.45;1.25;;;;;;;;;;5053532;28;20017;-65
2023/03/13 14:23:14;;;;;;;5.10;1.35;;;;;;;;;;5052754;28;20082;-64
2023/03/13 14:25:46;;;;;;;3.08;1.25;;;;;;;;;;5041040;28;20022;-64
2023/03/13 14:28:25;;;;;;;3.15;1.20;;;;;;;;;;5050418;28;20051;-64
2023/03/13 14:30:52;;;;;;;4.45;1.27;;;;;;;;;;5052252;28;20021;-64
2023/03/13 14:33:17;;;;;;;4.85;1.48;;;;;;;;;;5051042;28;20377;-64
2023/03/13 14:35:42;;;;;;;5.43;1.33;;;;;;;;;;5046600;28;20033;-64
2023/03/13 14:38:18;;;;;;;3.58;1.52;;;;;;;;;;5049908;28;20025;-64
2023/03/13 14:40:44;;;;;;;4.90;1.25;;;;;;;;;;5046267;28;20029;-63
2023/03/13 14:43:28;;;;;;;5.38;1.50;;;;;;;;;;5037790;28;20030;-63
2023/03/13 14:45:53;;;;;;;3.77;1.23;;;;;;;;;;5038569;28;20025;-63